Velserdiep — PBLP — position and weather

sailwx.info

Track history (hours):
 
Tides and Currents Weather Stations Pressure Air Temp Water Temp Dewpoint Dewpoint Depression Visibility Wind Speed Wind Dir Waves Ship Positions

Velserdiep

Last reported at 2018-Apr-21 11:30 UTC. Time now 2018-Apr-21 11:51 UTC.
Position N 52°28' E 004°35'.

Length 120 m; draft 5 m.

Type: Cargo ship. MMSI: 244484000.

Date/timePositionNaut miles runAvg speedWind from/ knotsBaromVisibWave heightAir tempDewpointWater temp
2018-Apr-21 11:30N 52°28' E 004°35'0 0.0
2018-Apr-21 11:01N 52°28' E 004°35'0 0.0
2018-Apr-21 10:30N 52°28' E 004°35'0 0.0
2018-Apr-21 10:00N 52°28' E 004°35'0 0.0
2018-Apr-21 09:31N 52°28' E 004°35'0 0.0
2018-Apr-21 09:00N 52°28' E 004°35'0 0.0
2018-Apr-21 08:30N 52°28' E 004°35'0 0.0
2018-Apr-21 08:00N 52°28' E 004°35'0 0.0
2018-Apr-21 07:31N 52°28' E 004°35'1 2.9
2018-Apr-21 07:00N 52°28' E 004°33'3 4.7
2018-Apr-21 06:29N 52°30' E 004°32'2 3.3
2018-Apr-21 05:58N 52°32' E 004°33'1 2.0
2018-Apr-21 05:30N 52°33' E 004°33'2 3.5
2018-Apr-21 04:58N 52°31' E 004°33'1 2.8
2018-Apr-21 04:30N 52°30' E 004°32'2 4.8
2018-Apr-21 03:59N 52°28' E 004°34'1 1.1
2018-Apr-21 03:30N 52°28' E 004°35'0 0.0
2018-Apr-21 03:00N 52°28' E 004°35'0 0.0
2018-Apr-21 02:30N 52°28' E 004°35'0 0.0
2018-Apr-21 02:00N 52°28' E 004°35'0 0.0
2018-Apr-21 01:30N 52°28' E 004°35'0 0.0
2018-Apr-21 01:00N 52°28' E 004°35'0 0.0
2018-Apr-21 00:30N 52°28' E 004°35'0 0.0
2018-Apr-21 00:00N 52°28' E 004°35'0 0.0
2018-Apr-20 23:30N 52°28' E 004°35'0 0.0
2018-Apr-20 23:00N 52°28' E 004°35'0 0.0
2018-Apr-20 22:30N 52°28' E 004°35'0 0.0
2018-Apr-20 22:00N 52°28' E 004°35'0 0.0
2018-Apr-20 21:30N 52°28' E 004°35'0 0.0
2018-Apr-20 21:00N 52°28' E 004°35'0 0.0
2018-Apr-20 20:30N 52°28' E 004°35'0 0.0
2018-Apr-20 20:00N 52°28' E 004°35'0 0.0
2018-Apr-20 19:30N 52°28' E 004°35'0 0.0
2018-Apr-20 19:00N 52°28' E 004°35'0 0.0
2018-Apr-20 18:30N 52°28' E 004°35'0 0.0
2018-Apr-20 18:00N 52°28' E 004°35'0 0.0
2018-Apr-20 17:30N 52°28' E 004°35'0 0.0
2018-Apr-20 17:00N 52°28' E 004°35'0 0.0
2018-Apr-20 16:30N 52°28' E 004°35'0 0.0
2018-Apr-20 16:00N 52°28' E 004°35'0 0.0
2018-Apr-20 15:30N 52°28' E 004°35'0 0.0
2018-Apr-20 15:00N 52°28' E 004°35'0 0.0
2018-Apr-20 14:30N 52°28' E 004°35'0 0.0
2018-Apr-20 14:00N 52°28' E 004°35'0 0.0
2018-Apr-20 13:30N 52°28' E 004°35'0 0.0
2018-Apr-20 13:00N 52°28' E 004°35'0 0.0
2018-Apr-20 12:30N 52°28' E 004°35'0 0.0
2018-Apr-20 12:00N 52°28' E 004°35'0 0.0
2018-Apr-20 11:30N 52°28' E 004°35'0 0.0
2018-Apr-20 11:00N 52°28' E 004°35'0 0.0
2018-Apr-20 10:30N 52°28' E 004°35'0 0.0
2018-Apr-20 10:00N 52°28' E 004°35'0 0.0
2018-Apr-20 09:30N 52°28' E 004°35'0 0.0
2018-Apr-20 09:00N 52°28' E 004°35'2 3.8
2018-Apr-20 08:30N 52°29' E 004°32'4 7.7
2018-Apr-20 08:00N 52°32' E 004°33'2 3.6
2018-Apr-20 07:29N 52°31' E 004°32'0 1.0
2018-Apr-20 07:00N 52°30' E 004°32'1 2.1
2018-Apr-20 06:30N 52°31' E 004°32'1 2.9
2018-Apr-20 06:00N 52°33' E 004°33'1 1.2
2018-Apr-20 05:30N 52°33' E 004°33'2 2.8
2018-Apr-20 04:57N 52°32' E 004°33'1 2.7
2018-Apr-20 04:30N 52°30' E 004°32'2 4.5
2018-Apr-20 04:00N 52°28' E 004°32'2 3.1
2018-Apr-20 03:30N 52°28' E 004°35'0 0.0
2018-Apr-20 03:00N 52°28' E 004°35'0 0.0
2018-Apr-20 02:30N 52°28' E 004°35'0 0.0
2018-Apr-20 02:00N 52°28' E 004°35'0 0.0
2018-Apr-20 01:30N 52°28' E 004°35'0 0.0
2018-Apr-20 01:00N 52°28' E 004°35'0 0.0
2018-Apr-20 00:30N 52°28' E 004°35'0 0.0
2018-Apr-20 00:00N 52°28' E 004°35'0 0.0
2018-Apr-19 23:30N 52°28' E 004°35'0 0.0
2018-Apr-19 23:00N 52°28' E 004°35'0 0.0
2018-Apr-19 22:30N 52°28' E 004°35'0 0.0
2018-Apr-19 22:00N 52°28' E 004°35'0 0.0
2018-Apr-19 21:30N 52°28' E 004°35'0 0.0
2018-Apr-19 21:00N 52°28' E 004°35'0 0.0
2018-Apr-19 20:30N 52°28' E 004°35'0 0.0
2018-Apr-19 20:00N 52°28' E 004°35'0 0.0
2018-Apr-19 19:30N 52°28' E 004°35'0 0.0
2018-Apr-19 19:00N 52°28' E 004°35'0 0.0
2018-Apr-19 18:30N 52°28' E 004°35'0 0.0
2018-Apr-19 18:00N 52°28' E 004°35'0 0.0
2018-Apr-19 17:30N 52°28' E 004°35'0 0.0
2018-Apr-19 17:00N 52°28' E 004°35'0 0.0
2018-Apr-19 16:30N 52°28' E 004°35'0 0.0
2018-Apr-19 16:00N 52°28' E 004°35'0 0.2
2018-Apr-19 15:30N 52°28' E 004°35'3 6.4
2018-Apr-19 14:59N 52°30' E 004°32'2 4.6
2018-Apr-19 14:29N 52°33' E 004°33'4 7.6
2018-Apr-19 14:00N 52°29' E 004°32'  
2018-Apr-17 08:11N 52°28' E 004°35'1 5.7
2018-Apr-17 08:00N 52°28' E 004°33'5 7.9
2018-Apr-17 07:25N 52°32' E 004°35'4 6.4
2018-Apr-17 06:52N 52°36' E 004°36'0 0.5
2018-Apr-17 05:55N 52°36' E 004°36'2 5.4
2018-Apr-17 05:30N 52°34' E 004°36'2 4.4
2018-Apr-17 04:59N 52°32' E 004°35'2 3.8
2018-Apr-17 04:30N 52°30' E 004°34'2 3.4
2018-Apr-17 04:00N 52°28' E 004°33'1 2.8
2018-Apr-17 03:30N 52°28' E 004°35'0 0.0
2018-Apr-17 03:00N 52°28' E 004°35'0 0.0
2018-Apr-17 02:30N 52°28' E 004°35'0 0.0
2018-Apr-17 02:00N 52°28' E 004°35'0 0.0
2018-Apr-17 01:30N 52°28' E 004°35'0 0.0
2018-Apr-17 01:00N 52°28' E 004°35'0 0.0
2018-Apr-17 00:30N 52°28' E 004°35'0 0.0
2018-Apr-17 00:00N 52°28' E 004°35'0 0.0
2018-Apr-16 23:30N 52°28' E 004°35'0 0.0
2018-Apr-16 23:00N 52°28' E 004°35'0 0.0
2018-Apr-16 22:30N 52°28' E 004°35'0 0.0
2018-Apr-16 22:00N 52°28' E 004°35'0 0.0
2018-Apr-16 21:30N 52°28' E 004°35'0 0.0
2018-Apr-16 21:00N 52°28' E 004°35'0 0.0
2018-Apr-16 20:30N 52°28' E 004°35'0 0.0
2018-Apr-16 20:00N 52°28' E 004°35'0 0.0
2018-Apr-16 19:30N 52°28' E 004°35'0 0.0
2018-Apr-16 19:00N 52°28' E 004°35'0 0.0
2018-Apr-16 18:30N 52°28' E 004°35'0 0.0
2018-Apr-16 18:00N 52°28' E 004°35'0 0.0
2018-Apr-16 17:30N 52°28' E 004°35'0 0.0
2018-Apr-16 17:00N 52°28' E 004°35'0 0.0
2018-Apr-16 16:30N 52°28' E 004°35'0 0.0
2018-Apr-16 15:59N 52°28' E 004°35'0 0.0
2018-Apr-16 15:30N 52°28' E 004°35'0 0.0
2018-Apr-16 15:00N 52°28' E 004°35'0 0.0
2018-Apr-16 14:30N 52°28' E 004°35'0 0.0
2018-Apr-16 14:00N 52°28' E 004°35'0 0.0
2018-Apr-16 13:30N 52°28' E 004°35'3 5.1
2018-Apr-16 13:00N 52°30' E 004°34'4 8.3
2018-Apr-16 12:28N 52°34' E 004°35'1 1.2
2018-Apr-16 11:55N 52°35' E 004°36'3 8.2
2018-Apr-16 11:30N 52°31' E 004°35'4 7.2
2018-Apr-16 11:00N 52°28' E 004°33'1 2.8
2018-Apr-16 10:30N 52°28' E 004°35'0 0.0
2018-Apr-16 10:00N 52°28' E 004°35'0 0.0
2018-Apr-16 09:30N 52°28' E 004°35'0 0.0
2018-Apr-16 09:00N 52°28' E 004°35'0 0.0
2018-Apr-16 08:30N 52°28' E 004°35'0 0.0
2018-Apr-16 08:00N 52°28' E 004°35'0 0.0
2018-Apr-16 07:30N 52°28' E 004°35'0 0.0
2018-Apr-16 07:00N 52°28' E 004°35'0 0.0
2018-Apr-16 06:30N 52°28' E 004°35'0 0.0
2018-Apr-16 06:00N 52°28' E 004°35'0 0.0
2018-Apr-16 05:30N 52°28' E 004°35'0 0.0
2018-Apr-16 05:00N 52°28' E 004°35'0 0.0
2018-Apr-16 04:30N 52°28' E 004°35'0 0.0
2018-Apr-16 04:00N 52°28' E 004°35'0 0.0
2018-Apr-16 03:30N 52°28' E 004°35'0 0.0
2018-Apr-16 03:00N 52°28' E 004°35'0 0.0
2018-Apr-16 02:30N 52°28' E 004°35'0 0.0
2018-Apr-16 02:00N 52°28' E 004°35'0 0.0
2018-Apr-16 01:30N 52°28' E 004°35'0 0.0
2018-Apr-16 01:00N 52°28' E 004°35'0 0.0
2018-Apr-16 00:30N 52°28' E 004°35'0 0.0
2018-Apr-16 00:00N 52°28' E 004°35'0 0.0
2018-Apr-15 23:30N 52°28' E 004°35'0 0.0
2018-Apr-15 23:00N 52°28' E 004°35'0 0.0
2018-Apr-15 22:30N 52°28' E 004°35'0 0.0
2018-Apr-15 22:00N 52°28' E 004°35'0 0.0
2018-Apr-15 21:30N 52°28' E 004°35'0 0.0
2018-Apr-15 21:00N 52°28' E 004°35'0 0.0
2018-Apr-15 20:30N 52°28' E 004°35'0 0.0
2018-Apr-15 20:00N 52°28' E 004°35'0 0.0
2018-Apr-15 19:30N 52°28' E 004°35'0 0.0
2018-Apr-15 19:00N 52°28' E 004°35'0 0.0
2018-Apr-15 18:30N 52°28' E 004°35'0 0.0
2018-Apr-15 18:00N 52°28' E 004°35'0 0.0
2018-Apr-15 17:30N 52°28' E 004°35'0 0.0
2018-Apr-15 17:00N 52°28' E 004°35'0 0.0
2018-Apr-15 16:30N 52°28' E 004°35'0 0.0
2018-Apr-15 16:00N 52°28' E 004°35'0 0.0
2018-Apr-15 15:30N 52°28' E 004°35'0 0.0
2018-Apr-15 15:00N 52°28' E 004°35'0 0.0
2018-Apr-15 14:30N 52°28' E 004°35'0 0.0
2018-Apr-15 14:00N 52°28' E 004°35'0 0.0
2018-Apr-15 13:30N 52°28' E 004°35'0 0.0
2018-Apr-15 13:00N 52°28' E 004°35'0 0.0
2018-Apr-15 12:30N 52°28' E 004°35'0 0.0
2018-Apr-15 12:00N 52°28' E 004°35'0 0.0
2018-Apr-15 11:30N 52°28' E 004°35'0 0.0
2018-Apr-15 11:01N 52°28' E 004°35'0 0.0
2018-Apr-15 10:30N 52°28' E 004°35'0 0.0
2018-Apr-15 10:00N 52°28' E 004°35'0 0.0
2018-Apr-15 09:30N 52°28' E 004°35'0 0.0
2018-Apr-15 09:00N 52°28' E 004°35'0 0.0
2018-Apr-15 08:30N 52°28' E 004°35'1 2.4
2018-Apr-15 08:00N 52°28' E 004°33'4 8.2
2018-Apr-15 07:29N 52°32' E 004°31'1 2.1
2018-Apr-15 07:01N 52°33' E 004°31'2 3.2
2018-Apr-15 06:30N 52°31' E 004°31'1 1.7
2018-Apr-15 05:58N 52°31' E 004°30'2 3.9
2018-Apr-15 05:28N 52°33' E 004°31'1 2.4
2018-Apr-15 05:00N 52°34' E 004°31'4 8.9
2018-Apr-15 04:30N 52°29' E 004°32'3 5.1
2018-Apr-15 04:00N 52°28' E 004°35'0 0.0
2018-Apr-15 03:30N 52°28' E 004°35'0 0.0
2018-Apr-15 03:00N 52°28' E 004°35'0 0.0
2018-Apr-15 02:30N 52°28' E 004°35'0 0.0
2018-Apr-15 02:00N 52°28' E 004°35'0 0.0
2018-Apr-15 01:30N 52°28' E 004°35'0 0.0
2018-Apr-15 01:00N 52°28' E 004°35'0 0.0
2018-Apr-15 00:30N 52°28' E 004°35'0 0.0
2018-Apr-15 00:00N 52°28' E 004°35'0 0.0
2018-Apr-14 23:30N 52°28' E 004°35'0 0.0
2018-Apr-14 23:00N 52°28' E 004°35'0 0.0
2018-Apr-14 22:30N 52°28' E 004°35'0 0.0
2018-Apr-14 22:00N 52°28' E 004°35'0 0.0
2018-Apr-14 21:30N 52°28' E 004°35'0 0.0
2018-Apr-14 21:00N 52°28' E 004°35'0 0.0
2018-Apr-14 20:30N 52°28' E 004°35'0 0.0
2018-Apr-14 20:00N 52°28' E 004°35'0 0.0
2018-Apr-14 19:30N 52°28' E 004°35'0 0.0
2018-Apr-14 19:00N 52°28' E 004°35'0 0.0
2018-Apr-14 18:30N 52°28' E 004°35'0 0.0
2018-Apr-14 18:00N 52°28' E 004°35'0 0.0
2018-Apr-14 17:28N 52°28' E 004°35'0 0.0
2018-Apr-14 17:00N 52°28' E 004°35'0 0.0
2018-Apr-14 16:30N 52°28' E 004°35'0 0.0
2018-Apr-14 16:00N 52°28' E 004°35'0 0.0
2018-Apr-14 15:30N 52°28' E 004°35'0 0.0
2018-Apr-14 15:00N 52°28' E 004°35'0 0.0
2018-Apr-14 14:30N 52°28' E 004°35'0 0.0
2018-Apr-14 14:00N 52°28' E 004°35'0 0.0
2018-Apr-14 13:29N 52°28' E 004°35'0 0.0
2018-Apr-14 13:00N 52°28' E 004°35'0 0.0
2018-Apr-14 12:30N 52°28' E 004°35'0 0.0
2018-Apr-14 12:00N 52°28' E 004°35'0 0.0
2018-Apr-14 11:30N 52°28' E 004°35'0 0.0
2018-Apr-14 11:00N 52°28' E 004°35'0 0.0
2018-Apr-14 10:30N 52°28' E 004°35'0 0.0
2018-Apr-14 10:00N 52°28' E 004°35'0 0.0
2018-Apr-14 09:30N 52°28' E 004°35'0 0.0
2018-Apr-14 09:00N 52°28' E 004°35'0 0.0
2018-Apr-14 08:30N 52°28' E 004°35'0 0.0
2018-Apr-14 08:00N 52°28' E 004°35'0 0.0
2018-Apr-14 07:30N 52°28' E 004°35'0 0.0
2018-Apr-14 07:00N 52°28' E 004°35'0 0.0
2018-Apr-14 06:30N 52°28' E 004°35'0 0.0
2018-Apr-14 06:00N 52°28' E 004°35'0 0.0
2018-Apr-14 05:30N 52°28' E 004°35'0 0.0
2018-Apr-14 05:00N 52°28' E 004°35'0 0.0
2018-Apr-14 04:30N 52°28' E 004°35'0 0.0
2018-Apr-14 04:00N 52°28' E 004°35'0 0.0
2018-Apr-14 03:30N 52°28' E 004°35'0 0.0
2018-Apr-14 02:59N 52°28' E 004°35'0 0.0
2018-Apr-14 02:30N 52°28' E 004°35'0 0.0
2018-Apr-14 02:00N 52°28' E 004°35'0 0.0
2018-Apr-14 01:31N 52°28' E 004°35'0 0.0
2018-Apr-14 01:00N 52°28' E 004°35'0 0.0
2018-Apr-14 00:30N 52°28' E 004°35'0 0.0
2018-Apr-14 00:00N 52°28' E 004°35'0 0.0
2018-Apr-13 23:30N 52°28' E 004°35'0 0.0
2018-Apr-13 23:00N 52°28' E 004°35'0 0.0
2018-Apr-13 22:30N 52°28' E 004°35'0 0.0
2018-Apr-13 22:00N 52°28' E 004°35'0 0.0
2018-Apr-13 21:31N 52°28' E 004°35'0 0.0
2018-Apr-13 21:00N 52°28' E 004°35'0 0.0
2018-Apr-13 20:30N 52°28' E 004°35'0 0.0
2018-Apr-13 20:00N 52°28' E 004°35'0 0.0
2018-Apr-13 19:30N 52°28' E 004°35'0 0.0
2018-Apr-13 19:00N 52°28' E 004°35'0 0.0
2018-Apr-13 18:29N 52°28' E 004°35'0 0.0
2018-Apr-13 18:00N 52°28' E 004°35'0 0.0
2018-Apr-13 17:29N 52°28' E 004°35'0 0.0
2018-Apr-13 17:00N 52°28' E 004°35'0 0.0
2018-Apr-13 16:30N 52°28' E 004°35'0 0.0
2018-Apr-13 16:00N 52°28' E 004°35'0 0.0
2018-Apr-13 15:30N 52°28' E 004°35'0 0.0
2018-Apr-13 15:00N 52°28' E 004°35'0 0.0
2018-Apr-13 14:30N 52°28' E 004°35'0 0.0
2018-Apr-13 14:00N 52°28' E 004°35'0 0.0
2018-Apr-13 13:31N 52°28' E 004°35'0 0.0
2018-Apr-13 13:00N 52°28' E 004°35'0 0.0
2018-Apr-13 12:30N 52°28' E 004°35'0 0.0
2018-Apr-13 12:00N 52°28' E 004°35'0 0.0
2018-Apr-13 11:30N 52°28' E 004°35'0 0.0
2018-Apr-13 11:00N 52°28' E 004°35'0 0.0
2018-Apr-13 10:30N 52°28' E 004°35'0 0.0
2018-Apr-13 10:00N 52°28' E 004°35'3 5.6
2018-Apr-13 09:30N 52°29' E 004°32'3 6.3
2018-Apr-13 08:57N 52°33' E 004°31'2 4.3
2018-Apr-13 08:29N 52°31' E 004°30'7 4.6
2018-Apr-13 06:57N 52°38' E 004°32'1 3.1
2018-Apr-13 06:30N 52°37' E 004°32'2 3.2
2018-Apr-13 05:59N 52°35' E 004°31'2 3.4
2018-Apr-13 05:30N 52°33' E 004°31'1 2.8
2018-Apr-13 05:00N 52°32' E 004°30'1 2.9
2018-Apr-13 04:30N 52°31' E 004°30'2 4.5
2018-Apr-13 04:00N 52°29' E 004°32'2 4.6
2018-Apr-13 03:31N 52°28' E 004°35'0 0.0
2018-Apr-13 03:00N 52°28' E 004°35'0 0.0
2018-Apr-13 02:30N 52°28' E 004°35'0 0.0
2018-Apr-13 02:00N 52°28' E 004°35'0 0.0
2018-Apr-13 01:30N 52°28' E 004°35'0 0.0
2018-Apr-13 01:00N 52°28' E 004°35'0 0.0
2018-Apr-13 00:30N 52°28' E 004°35'0 0.0
2018-Apr-13 00:00N 52°28' E 004°35'0 0.0
2018-Apr-12 23:30N 52°28' E 004°35'0 0.0
2018-Apr-12 23:00N 52°28' E 004°35'0 0.0
2018-Apr-12 22:30N 52°28' E 004°35'0 0.0
2018-Apr-12 22:00N 52°28' E 004°35'0 0.0
2018-Apr-12 21:30N 52°28' E 004°35'0 0.0
2018-Apr-12 21:00N 52°28' E 004°35'0 0.0
2018-Apr-12 20:30N 52°28' E 004°35'0 0.0
2018-Apr-12 20:00N 52°28' E 004°35'0 0.0
2018-Apr-12 19:30N 52°28' E 004°35'0 0.0
2018-Apr-12 19:00N 52°28' E 004°35'0 0.0
2018-Apr-12 18:30N 52°28' E 004°35'0 0.0
2018-Apr-12 18:00N 52°28' E 004°35'0 0.0
2018-Apr-12 17:30N 52°28' E 004°35'0 0.0
2018-Apr-12 17:01N 52°28' E 004°35'0 0.0
2018-Apr-12 16:29N 52°28' E 004°35'0 0.0
2018-Apr-12 16:00N 52°28' E 004°35'1 1.1
2018-Apr-12 15:30N 52°27' E 004°36'0 0.9
2018-Apr-12 15:00N 52°28' E 004°35'0 0.5
2018-Apr-12 14:30N 52°28' E 004°35'0 0.0
2018-Apr-12 14:00N 52°28' E 004°35'0 0.0
2018-Apr-12 13:30N 52°28' E 004°35'0 0.0
2018-Apr-12 13:00N 52°28' E 004°35'0 0.0
2018-Apr-12 12:30N 52°28' E 004°35'0 0.0
2018-Apr-12 12:00N 52°28' E 004°35'0 0.0
2018-Apr-12 11:30N 52°28' E 004°35'0 0.0
2018-Apr-12 11:00N 52°28' E 004°35'0 0.0
2018-Apr-12 10:30N 52°28' E 004°35'2 4.7
2018-Apr-12 10:00N 52°29' E 004°31'4 6.9
2018-Apr-12 09:30N 52°32' E 004°30'5 6.1
2018-Apr-12 08:38N 52°37' E 004°32'5 1.1
2018-Apr-12 04:31N 52°33' E 004°30'0 8.2
2018-Apr-12 04:30N 52°33' E 004°30'4 7.8
2018-Apr-12 04:00N 52°29' E 004°32'2 4.2
2018-Apr-12 03:30N 52°28' E 004°35'0 0.0
2018-Apr-12 03:00N 52°28' E 004°35'0 0.0
2018-Apr-12 02:30N 52°28' E 004°35'0 0.0
2018-Apr-12 02:00N 52°28' E 004°35'0 0.0
2018-Apr-12 01:30N 52°28' E 004°35'0 0.0
2018-Apr-12 01:00N 52°28' E 004°35'0 0.0
2018-Apr-12 00:30N 52°28' E 004°35'0 0.0
2018-Apr-12 00:00N 52°28' E 004°35'0 0.0
2018-Apr-11 23:30N 52°28' E 004°35'0 0.0
2018-Apr-11 23:00N 52°28' E 004°35'0 0.0
2018-Apr-11 22:30N 52°28' E 004°35'0 0.0
2018-Apr-11 22:00N 52°28' E 004°35'0 0.0
2018-Apr-11 21:30N 52°28' E 004°35'0 0.0
2018-Apr-11 21:00N 52°28' E 004°35'0 0.0
2018-Apr-11 20:30N 52°28' E 004°35'0 0.0
2018-Apr-11 20:00N 52°28' E 004°35'0 0.0
2018-Apr-11 19:30N 52°28' E 004°35'0 0.0
2018-Apr-11 19:00N 52°28' E 004°35'0 0.0
2018-Apr-11 18:30N 52°28' E 004°35'0 0.0
2018-Apr-11 18:00N 52°28' E 004°35'0 0.0
2018-Apr-11 17:30N 52°28' E 004°35'0 0.0
2018-Apr-11 17:00N 52°28' E 004°35'0 0.0
2018-Apr-11 16:30N 52°28' E 004°35'0 0.0
2018-Apr-11 16:00N 52°28' E 004°35'0 0.0
2018-Apr-11 15:30N 52°28' E 004°35'0 0.0
2018-Apr-11 15:00N 52°28' E 004°35'0 0.0
2018-Apr-11 14:30N 52°28' E 004°35'0 0.0
2018-Apr-11 14:00N 52°28' E 004°35'0 0.0
2018-Apr-11 13:30N 52°28' E 004°35'0 0.0
2018-Apr-11 13:00N 52°28' E 004°35'0 0.6
2018-Apr-11 12:30N 52°28' E 004°35'3 6.8
2018-Apr-11 11:59N 52°31' E 004°32'  
Track history (hours):
 
Tides and Currents Weather Stations Pressure Air Temp Water Temp Dewpoint Dewpoint Depression Visibility Wind Speed Wind Dir Waves Ship Positions

Velserdiep

Last reported at 2018-Apr-21 11:30 UTC. Time now 2018-Apr-21 11:51 UTC.
Position N 52°28' E 004°35'.

Length 120 m; draft 5 m.

Type: Cargo ship. MMSI: 244484000.

Date/timePositionNaut miles runAvg speedWind from/ knotsBaromVisibWave heightAir tempDewpointWater temp
2018-Apr-21 11:30N 52°28' E 004°35'0 0.0
2018-Apr-21 11:01N 52°28' E 004°35'0 0.0
2018-Apr-21 10:30N 52°28' E 004°35'0 0.0
2018-Apr-21 10:00N 52°28' E 004°35'0 0.0
2018-Apr-21 09:31N 52°28' E 004°35'0 0.0
2018-Apr-21 09:00N 52°28' E 004°35'0 0.0
2018-Apr-21 08:30N 52°28' E 004°35'0 0.0
2018-Apr-21 08:00N 52°28' E 004°35'0 0.0
2018-Apr-21 07:31N 52°28' E 004°35'1 2.9
2018-Apr-21 07:00N 52°28' E 004°33'3 4.7
2018-Apr-21 06:29N 52°30' E 004°32'2 3.3
2018-Apr-21 05:58N 52°32' E 004°33'1 2.0
2018-Apr-21 05:30N 52°33' E 004°33'2 3.5
2018-Apr-21 04:58N 52°31' E 004°33'1 2.8
2018-Apr-21 04:30N 52°30' E 004°32'2 4.8
2018-Apr-21 03:59N 52°28' E 004°34'1 1.1
2018-Apr-21 03:30N 52°28' E 004°35'0 0.0
2018-Apr-21 03:00N 52°28' E 004°35'0 0.0
2018-Apr-21 02:30N 52°28' E 004°35'0 0.0
2018-Apr-21 02:00N 52°28' E 004°35'0 0.0
2018-Apr-21 01:30N 52°28' E 004°35'0 0.0
2018-Apr-21 01:00N 52°28' E 004°35'0 0.0
2018-Apr-21 00:30N 52°28' E 004°35'0 0.0
2018-Apr-21 00:00N 52°28' E 004°35'0 0.0
2018-Apr-20 23:30N 52°28' E 004°35'0 0.0
2018-Apr-20 23:00N 52°28' E 004°35'0 0.0
2018-Apr-20 22:30N 52°28' E 004°35'0 0.0
2018-Apr-20 22:00N 52°28' E 004°35'0 0.0
2018-Apr-20 21:30N 52°28' E 004°35'0 0.0
2018-Apr-20 21:00N 52°28' E 004°35'0 0.0
2018-Apr-20 20:30N 52°28' E 004°35'0 0.0
2018-Apr-20 20:00N 52°28' E 004°35'0 0.0
2018-Apr-20 19:30N 52°28' E 004°35'0 0.0
2018-Apr-20 19:00N 52°28' E 004°35'0 0.0
2018-Apr-20 18:30N 52°28' E 004°35'0 0.0
2018-Apr-20 18:00N 52°28' E 004°35'0 0.0
2018-Apr-20 17:30N 52°28' E 004°35'0 0.0
2018-Apr-20 17:00N 52°28' E 004°35'0 0.0
2018-Apr-20 16:30N 52°28' E 004°35'0 0.0
2018-Apr-20 16:00N 52°28' E 004°35'0 0.0
2018-Apr-20 15:30N 52°28' E 004°35'0 0.0
2018-Apr-20 15:00N 52°28' E 004°35'0 0.0
2018-Apr-20 14:30N 52°28' E 004°35'0 0.0
2018-Apr-20 14:00N 52°28' E 004°35'0 0.0
2018-Apr-20 13:30N 52°28' E 004°35'0 0.0
2018-Apr-20 13:00N 52°28' E 004°35'0 0.0
2018-Apr-20 12:30N 52°28' E 004°35'0 0.0
2018-Apr-20 12:00N 52°28' E 004°35'0 0.0
2018-Apr-20 11:30N 52°28' E 004°35'0 0.0
2018-Apr-20 11:00N 52°28' E 004°35'0 0.0
2018-Apr-20 10:30N 52°28' E 004°35'0 0.0
2018-Apr-20 10:00N 52°28' E 004°35'0 0.0
2018-Apr-20 09:30N 52°28' E 004°35'0 0.0
2018-Apr-20 09:00N 52°28' E 004°35'2 3.8
2018-Apr-20 08:30N 52°29' E 004°32'4 7.7
2018-Apr-20 08:00N 52°32' E 004°33'2 3.6
2018-Apr-20 07:29N 52°31' E 004°32'0 1.0
2018-Apr-20 07:00N 52°30' E 004°32'1 2.1
2018-Apr-20 06:30N 52°31' E 004°32'1 2.9
2018-Apr-20 06:00N 52°33' E 004°33'1 1.2
2018-Apr-20 05:30N 52°33' E 004°33'2 2.8
2018-Apr-20 04:57N 52°32' E 004°33'1 2.7
2018-Apr-20 04:30N 52°30' E 004°32'2 4.5
2018-Apr-20 04:00N 52°28' E 004°32'2 3.1
2018-Apr-20 03:30N 52°28' E 004°35'0 0.0
2018-Apr-20 03:00N 52°28' E 004°35'0 0.0
2018-Apr-20 02:30N 52°28' E 004°35'0 0.0
2018-Apr-20 02:00N 52°28' E 004°35'0 0.0
2018-Apr-20 01:30N 52°28' E 004°35'0 0.0
2018-Apr-20 01:00N 52°28' E 004°35'0 0.0
2018-Apr-20 00:30N 52°28' E 004°35'0 0.0
2018-Apr-20 00:00N 52°28' E 004°35'0 0.0
2018-Apr-19 23:30N 52°28' E 004°35'0 0.0
2018-Apr-19 23:00N 52°28' E 004°35'0 0.0
2018-Apr-19 22:30N 52°28' E 004°35'0 0.0
2018-Apr-19 22:00N 52°28' E 004°35'0 0.0
2018-Apr-19 21:30N 52°28' E 004°35'0 0.0
2018-Apr-19 21:00N 52°28' E 004°35'0 0.0
2018-Apr-19 20:30N 52°28' E 004°35'0 0.0
2018-Apr-19 20:00N 52°28' E 004°35'0 0.0
2018-Apr-19 19:30N 52°28' E 004°35'0 0.0
2018-Apr-19 19:00N 52°28' E 004°35'0 0.0
2018-Apr-19 18:30N 52°28' E 004°35'0 0.0
2018-Apr-19 18:00N 52°28' E 004°35'0 0.0
2018-Apr-19 17:30N 52°28' E 004°35'0 0.0
2018-Apr-19 17:00N 52°28' E 004°35'0 0.0
2018-Apr-19 16:30N 52°28' E 004°35'0 0.0
2018-Apr-19 16:00N 52°28' E 004°35'0 0.2
2018-Apr-19 15:30N 52°28' E 004°35'3 6.4
2018-Apr-19 14:59N 52°30' E 004°32'2 4.6
2018-Apr-19 14:29N 52°33' E 004°33'4 7.6
2018-Apr-19 14:00N 52°29' E 004°32'  
2018-Apr-17 08:11N 52°28' E 004°35'1 5.7
2018-Apr-17 08:00N 52°28' E 004°33'5 7.9
2018-Apr-17 07:25N 52°32' E 004°35'4 6.4
2018-Apr-17 06:52N 52°36' E 004°36'0 0.5
2018-Apr-17 05:55N 52°36' E 004°36'2 5.4
2018-Apr-17 05:30N 52°34' E 004°36'2 4.4
2018-Apr-17 04:59N 52°32' E 004°35'2 3.8
2018-Apr-17 04:30N 52°30' E 004°34'2 3.4
2018-Apr-17 04:00N 52°28' E 004°33'1 2.8
2018-Apr-17 03:30N 52°28' E 004°35'0 0.0
2018-Apr-17 03:00N 52°28' E 004°35'0 0.0
2018-Apr-17 02:30N 52°28' E 004°35'0 0.0
2018-Apr-17 02:00N 52°28' E 004°35'0 0.0
2018-Apr-17 01:30N 52°28' E 004°35'0 0.0
2018-Apr-17 01:00N 52°28' E 004°35'0 0.0
2018-Apr-17 00:30N 52°28' E 004°35'0 0.0
2018-Apr-17 00:00N 52°28' E 004°35'0 0.0
2018-Apr-16 23:30N 52°28' E 004°35'0 0.0
2018-Apr-16 23:00N 52°28' E 004°35'0 0.0
2018-Apr-16 22:30N 52°28' E 004°35'0 0.0
2018-Apr-16 22:00N 52°28' E 004°35'0 0.0
2018-Apr-16 21:30N 52°28' E 004°35'0 0.0
2018-Apr-16 21:00N 52°28' E 004°35'0 0.0
2018-Apr-16 20:30N 52°28' E 004°35'0 0.0
2018-Apr-16 20:00N 52°28' E 004°35'0 0.0
2018-Apr-16 19:30N 52°28' E 004°35'0 0.0
2018-Apr-16 19:00N 52°28' E 004°35'0 0.0
2018-Apr-16 18:30N 52°28' E 004°35'0 0.0
2018-Apr-16 18:00N 52°28' E 004°35'0 0.0
2018-Apr-16 17:30N 52°28' E 004°35'0 0.0
2018-Apr-16 17:00N 52°28' E 004°35'0 0.0
2018-Apr-16 16:30N 52°28' E 004°35'0 0.0
2018-Apr-16 15:59N 52°28' E 004°35'0 0.0
2018-Apr-16 15:30N 52°28' E 004°35'0 0.0
2018-Apr-16 15:00N 52°28' E 004°35'0 0.0
2018-Apr-16 14:30N 52°28' E 004°35'0 0.0
2018-Apr-16 14:00N 52°28' E 004°35'0 0.0
2018-Apr-16 13:30N 52°28' E 004°35'3 5.1
2018-Apr-16 13:00N 52°30' E 004°34'4 8.3
2018-Apr-16 12:28N 52°34' E 004°35'1 1.2
2018-Apr-16 11:55N 52°35' E 004°36'3 8.2
2018-Apr-16 11:30N 52°31' E 004°35'4 7.2
2018-Apr-16 11:00N 52°28' E 004°33'1 2.8
2018-Apr-16 10:30N 52°28' E 004°35'0 0.0
2018-Apr-16 10:00N 52°28' E 004°35'0 0.0
2018-Apr-16 09:30N 52°28' E 004°35'0 0.0
2018-Apr-16 09:00N 52°28' E 004°35'0 0.0
2018-Apr-16 08:30N 52°28' E 004°35'0 0.0
2018-Apr-16 08:00N 52°28' E 004°35'0 0.0
2018-Apr-16 07:30N 52°28' E 004°35'0 0.0
2018-Apr-16 07:00N 52°28' E 004°35'0 0.0
2018-Apr-16 06:30N 52°28' E 004°35'0 0.0
2018-Apr-16 06:00N 52°28' E 004°35'0 0.0
2018-Apr-16 05:30N 52°28' E 004°35'0 0.0
2018-Apr-16 05:00N 52°28' E 004°35'0 0.0
2018-Apr-16 04:30N 52°28' E 004°35'0 0.0
2018-Apr-16 04:00N 52°28' E 004°35'0 0.0
2018-Apr-16 03:30N 52°28' E 004°35'0 0.0
2018-Apr-16 03:00N 52°28' E 004°35'0 0.0
2018-Apr-16 02:30N 52°28' E 004°35'0 0.0
2018-Apr-16 02:00N 52°28' E 004°35'0 0.0
2018-Apr-16 01:30N 52°28' E 004°35'0 0.0
2018-Apr-16 01:00N 52°28' E 004°35'0 0.0
2018-Apr-16 00:30N 52°28' E 004°35'0 0.0
2018-Apr-16 00:00N 52°28' E 004°35'0 0.0
2018-Apr-15 23:30N 52°28' E 004°35'0 0.0
2018-Apr-15 23:00N 52°28' E 004°35'0 0.0
2018-Apr-15 22:30N 52°28' E 004°35'0 0.0
2018-Apr-15 22:00N 52°28' E 004°35'0 0.0
2018-Apr-15 21:30N 52°28' E 004°35'0 0.0
2018-Apr-15 21:00N 52°28' E 004°35'0 0.0
2018-Apr-15 20:30N 52°28' E 004°35'0 0.0
2018-Apr-15 20:00N 52°28' E 004°35'0 0.0
2018-Apr-15 19:30N 52°28' E 004°35'0 0.0
2018-Apr-15 19:00N 52°28' E 004°35'0 0.0
2018-Apr-15 18:30N 52°28' E 004°35'0 0.0
2018-Apr-15 18:00N 52°28' E 004°35'0 0.0
2018-Apr-15 17:30N 52°28' E 004°35'0 0.0
2018-Apr-15 17:00N 52°28' E 004°35'0 0.0
2018-Apr-15 16:30N 52°28' E 004°35'0 0.0
2018-Apr-15 16:00N 52°28' E 004°35'0 0.0
2018-Apr-15 15:30N 52°28' E 004°35'0 0.0
2018-Apr-15 15:00N 52°28' E 004°35'0 0.0
2018-Apr-15 14:30N 52°28' E 004°35'0 0.0
2018-Apr-15 14:00N 52°28' E 004°35'0 0.0
2018-Apr-15 13:30N 52°28' E 004°35'0 0.0
2018-Apr-15 13:00N 52°28' E 004°35'0 0.0
2018-Apr-15 12:30N 52°28' E 004°35'0 0.0
2018-Apr-15 12:00N 52°28' E 004°35'0 0.0
2018-Apr-15 11:30N 52°28' E 004°35'0 0.0
2018-Apr-15 11:01N 52°28' E 004°35'0 0.0
2018-Apr-15 10:30N 52°28' E 004°35'0 0.0
2018-Apr-15 10:00N 52°28' E 004°35'0 0.0
2018-Apr-15 09:30N 52°28' E 004°35'0 0.0
2018-Apr-15 09:00N 52°28' E 004°35'0 0.0
2018-Apr-15 08:30N 52°28' E 004°35'1 2.4
2018-Apr-15 08:00N 52°28' E 004°33'4 8.2
2018-Apr-15 07:29N 52°32' E 004°31'1 2.1
2018-Apr-15 07:01N 52°33' E 004°31'2 3.2
2018-Apr-15 06:30N 52°31' E 004°31'1 1.7
2018-Apr-15 05:58N 52°31' E 004°30'2 3.9
2018-Apr-15 05:28N 52°33' E 004°31'1 2.4
2018-Apr-15 05:00N 52°34' E 004°31'4 8.9
2018-Apr-15 04:30N 52°29' E 004°32'3 5.1
2018-Apr-15 04:00N 52°28' E 004°35'0 0.0
2018-Apr-15 03:30N 52°28' E 004°35'0 0.0
2018-Apr-15 03:00N 52°28' E 004°35'0 0.0
2018-Apr-15 02:30N 52°28' E 004°35'0 0.0
2018-Apr-15 02:00N 52°28' E 004°35'0 0.0
2018-Apr-15 01:30N 52°28' E 004°35'0 0.0
2018-Apr-15 01:00N 52°28' E 004°35'0 0.0
2018-Apr-15 00:30N 52°28' E 004°35'0 0.0
2018-Apr-15 00:00N 52°28' E 004°35'0 0.0
2018-Apr-14 23:30N 52°28' E 004°35'0 0.0
2018-Apr-14 23:00N 52°28' E 004°35'0 0.0
2018-Apr-14 22:30N 52°28' E 004°35'0 0.0
2018-Apr-14 22:00N 52°28' E 004°35'0 0.0
2018-Apr-14 21:30N 52°28' E 004°35'0 0.0
2018-Apr-14 21:00N 52°28' E 004°35'0 0.0
2018-Apr-14 20:30N 52°28' E 004°35'0 0.0
2018-Apr-14 20:00N 52°28' E 004°35'0 0.0
2018-Apr-14 19:30N 52°28' E 004°35'0 0.0
2018-Apr-14 19:00N 52°28' E 004°35'0 0.0
2018-Apr-14 18:30N 52°28' E 004°35'0 0.0
2018-Apr-14 18:00N 52°28' E 004°35'0 0.0
2018-Apr-14 17:28N 52°28' E 004°35'0 0.0
2018-Apr-14 17:00N 52°28' E 004°35'0 0.0
2018-Apr-14 16:30N 52°28' E 004°35'0 0.0
2018-Apr-14 16:00N 52°28' E 004°35'0 0.0
2018-Apr-14 15:30N 52°28' E 004°35'0 0.0
2018-Apr-14 15:00N 52°28' E 004°35'0 0.0
2018-Apr-14 14:30N 52°28' E 004°35'0 0.0
2018-Apr-14 14:00N 52°28' E 004°35'0 0.0
2018-Apr-14 13:29N 52°28' E 004°35'0 0.0
2018-Apr-14 13:00N 52°28' E 004°35'0 0.0
2018-Apr-14 12:30N 52°28' E 004°35'0 0.0
2018-Apr-14 12:00N 52°28' E 004°35'0 0.0
2018-Apr-14 11:30N 52°28' E 004°35'0 0.0
2018-Apr-14 11:00N 52°28' E 004°35'0 0.0
2018-Apr-14 10:30N 52°28' E 004°35'0 0.0
2018-Apr-14 10:00N 52°28' E 004°35'0 0.0
2018-Apr-14 09:30N 52°28' E 004°35'0 0.0
2018-Apr-14 09:00N 52°28' E 004°35'0 0.0
2018-Apr-14 08:30N 52°28' E 004°35'0 0.0
2018-Apr-14 08:00N 52°28' E 004°35'0 0.0
2018-Apr-14 07:30N 52°28' E 004°35'0 0.0
2018-Apr-14 07:00N 52°28' E 004°35'0 0.0
2018-Apr-14 06:30N 52°28' E 004°35'0 0.0
2018-Apr-14 06:00N 52°28' E 004°35'0 0.0
2018-Apr-14 05:30N 52°28' E 004°35'0 0.0
2018-Apr-14 05:00N 52°28' E 004°35'0 0.0
2018-Apr-14 04:30N 52°28' E 004°35'0 0.0
2018-Apr-14 04:00N 52°28' E 004°35'0 0.0
2018-Apr-14 03:30N 52°28' E 004°35'0 0.0
2018-Apr-14 02:59N 52°28' E 004°35'0 0.0
2018-Apr-14 02:30N 52°28' E 004°35'0 0.0
2018-Apr-14 02:00N 52°28' E 004°35'0 0.0
2018-Apr-14 01:31N 52°28' E 004°35'0 0.0
2018-Apr-14 01:00N 52°28' E 004°35'0 0.0
2018-Apr-14 00:30N 52°28' E 004°35'0 0.0
2018-Apr-14 00:00N 52°28' E 004°35'0 0.0
2018-Apr-13 23:30N 52°28' E 004°35'0 0.0
2018-Apr-13 23:00N 52°28' E 004°35'0 0.0
2018-Apr-13 22:30N 52°28' E 004°35'0 0.0
2018-Apr-13 22:00N 52°28' E 004°35'0 0.0
2018-Apr-13 21:31N 52°28' E 004°35'0 0.0
2018-Apr-13 21:00N 52°28' E 004°35'0 0.0
2018-Apr-13 20:30N 52°28' E 004°35'0 0.0
2018-Apr-13 20:00N 52°28' E 004°35'0 0.0
2018-Apr-13 19:30N 52°28' E 004°35'0 0.0
2018-Apr-13 19:00N 52°28' E 004°35'0 0.0
2018-Apr-13 18:29N 52°28' E 004°35'0 0.0
2018-Apr-13 18:00N 52°28' E 004°35'0 0.0
2018-Apr-13 17:29N 52°28' E 004°35'0 0.0
2018-Apr-13 17:00N 52°28' E 004°35'0 0.0
2018-Apr-13 16:30N 52°28' E 004°35'0 0.0
2018-Apr-13 16:00N 52°28' E 004°35'0 0.0
2018-Apr-13 15:30N 52°28' E 004°35'0 0.0
2018-Apr-13 15:00N 52°28' E 004°35'0 0.0
2018-Apr-13 14:30N 52°28' E 004°35'0 0.0
2018-Apr-13 14:00N 52°28' E 004°35'0 0.0
2018-Apr-13 13:31N 52°28' E 004°35'0 0.0
2018-Apr-13 13:00N 52°28' E 004°35'0 0.0
2018-Apr-13 12:30N 52°28' E 004°35'0 0.0
2018-Apr-13 12:00N 52°28' E 004°35'0 0.0
2018-Apr-13 11:30N 52°28' E 004°35'0 0.0
2018-Apr-13 11:00N 52°28' E 004°35'0 0.0
2018-Apr-13 10:30N 52°28' E 004°35'0 0.0
2018-Apr-13 10:00N 52°28' E 004°35'3 5.6
2018-Apr-13 09:30N 52°29' E 004°32'3 6.3
2018-Apr-13 08:57N 52°33' E 004°31'2 4.3
2018-Apr-13 08:29N 52°31' E 004°30'7 4.6
2018-Apr-13 06:57N 52°38' E 004°32'1 3.1
2018-Apr-13 06:30N 52°37' E 004°32'2 3.2
2018-Apr-13 05:59N 52°35' E 004°31'2 3.4
2018-Apr-13 05:30N 52°33' E 004°31'1 2.8
2018-Apr-13 05:00N 52°32' E 004°30'1 2.9
2018-Apr-13 04:30N 52°31' E 004°30'2 4.5
2018-Apr-13 04:00N 52°29' E 004°32'2 4.6
2018-Apr-13 03:31N 52°28' E 004°35'0 0.0
2018-Apr-13 03:00N 52°28' E 004°35'0 0.0
2018-Apr-13 02:30N 52°28' E 004°35'0 0.0
2018-Apr-13 02:00N 52°28' E 004°35'0 0.0
2018-Apr-13 01:30N 52°28' E 004°35'0 0.0
2018-Apr-13 01:00N 52°28' E 004°35'0 0.0
2018-Apr-13 00:30N 52°28' E 004°35'0 0.0
2018-Apr-13 00:00N 52°28' E 004°35'0 0.0
2018-Apr-12 23:30N 52°28' E 004°35'0 0.0
2018-Apr-12 23:00N 52°28' E 004°35'0 0.0
2018-Apr-12 22:30N 52°28' E 004°35'0 0.0
2018-Apr-12 22:00N 52°28' E 004°35'0 0.0
2018-Apr-12 21:30N 52°28' E 004°35'0 0.0
2018-Apr-12 21:00N 52°28' E 004°35'0 0.0
2018-Apr-12 20:30N 52°28' E 004°35'0 0.0
2018-Apr-12 20:00N 52°28' E 004°35'0 0.0
2018-Apr-12 19:30N 52°28' E 004°35'0 0.0
2018-Apr-12 19:00N 52°28' E 004°35'0 0.0
2018-Apr-12 18:30N 52°28' E 004°35'0 0.0
2018-Apr-12 18:00N 52°28' E 004°35'0 0.0
2018-Apr-12 17:30N 52°28' E 004°35'0 0.0
2018-Apr-12 17:01N 52°28' E 004°35'0 0.0
2018-Apr-12 16:29N 52°28' E 004°35'0 0.0
2018-Apr-12 16:00N 52°28' E 004°35'1 1.1
2018-Apr-12 15:30N 52°27' E 004°36'0 0.9
2018-Apr-12 15:00N 52°28' E 004°35'0 0.5
2018-Apr-12 14:30N 52°28' E 004°35'0 0.0
2018-Apr-12 14:00N 52°28' E 004°35'0 0.0
2018-Apr-12 13:30N 52°28' E 004°35'0 0.0
2018-Apr-12 13:00N 52°28' E 004°35'0 0.0
2018-Apr-12 12:30N 52°28' E 004°35'0 0.0
2018-Apr-12 12:00N 52°28' E 004°35'0 0.0
2018-Apr-12 11:30N 52°28' E 004°35'0 0.0
2018-Apr-12 11:00N 52°28' E 004°35'0 0.0
2018-Apr-12 10:30N 52°28' E 004°35'2 4.7
2018-Apr-12 10:00N 52°29' E 004°31'4 6.9
2018-Apr-12 09:30N 52°32' E 004°30'5 6.1
2018-Apr-12 08:38N 52°37' E 004°32'5 1.1
2018-Apr-12 04:31N 52°33' E 004°30'0 8.2
2018-Apr-12 04:30N 52°33' E 004°30'4 7.8
2018-Apr-12 04:00N 52°29' E 004°32'2 4.2
2018-Apr-12 03:30N 52°28' E 004°35'0 0.0
2018-Apr-12 03:00N 52°28' E 004°35'0 0.0
2018-Apr-12 02:30N 52°28' E 004°35'0 0.0
2018-Apr-12 02:00N 52°28' E 004°35'0 0.0
2018-Apr-12 01:30N 52°28' E 004°35'0 0.0
2018-Apr-12 01:00N 52°28' E 004°35'0 0.0
2018-Apr-12 00:30N 52°28' E 004°35'0 0.0
2018-Apr-12 00:00N 52°28' E 004°35'0 0.0
2018-Apr-11 23:30N 52°28' E 004°35'0 0.0
2018-Apr-11 23:00N 52°28' E 004°35'0 0.0
2018-Apr-11 22:30N 52°28' E 004°35'0 0.0
2018-Apr-11 22:00N 52°28' E 004°35'0 0.0
2018-Apr-11 21:30N 52°28' E 004°35'0 0.0
2018-Apr-11 21:00N 52°28' E 004°35'0 0.0
2018-Apr-11 20:30N 52°28' E 004°35'0 0.0
2018-Apr-11 20:00N 52°28' E 004°35'0 0.0
2018-Apr-11 19:30N 52°28' E 004°35'0 0.0
2018-Apr-11 19:00N 52°28' E 004°35'0 0.0
2018-Apr-11 18:30N 52°28' E 004°35'0 0.0
2018-Apr-11 18:00N 52°28' E 004°35'0 0.0
2018-Apr-11 17:30N 52°28' E 004°35'0 0.0
2018-Apr-11 17:00N 52°28' E 004°35'0 0.0
2018-Apr-11 16:30N 52°28' E 004°35'0 0.0
2018-Apr-11 16:00N 52°28' E 004°35'0 0.0
2018-Apr-11 15:30N 52°28' E 004°35'0 0.0
2018-Apr-11 15:00N 52°28' E 004°35'0 0.0
2018-Apr-11 14:30N 52°28' E 004°35'0 0.0
2018-Apr-11 14:00N 52°28' E 004°35'0 0.0
2018-Apr-11 13:30N 52°28' E 004°35'0 0.0
2018-Apr-11 13:00N 52°28' E 004°35'0 0.6
2018-Apr-11 12:30N 52°28' E 004°35'3 6.8
2018-Apr-11 11:59N 52°31' E 004°32'  

Dump ship's entire track history